sensor_id;sensor_type;location;lat;lon;timestamp;P1;durP1;ratioP1;P2;durP2;ratioP2
48703;SDS011;34502;51.296;16.918;2023-02-15T00:01:32;58.38;;;31.17;;
48703;SDS011;34502;51.296;16.918;2023-02-15T00:03:59;57.97;;;31.23;;
48703;SDS011;34502;51.296;16.918;2023-02-15T00:06:25;59.15;;;31.55;;
48703;SDS011;34502;51.296;16.918;2023-02-15T00:08:51;55.22;;;29.80;;
48703;SDS011;34502;51.296;16.918;2023-02-15T00:11:19;57.50;;;31.40;;
48703;SDS011;34502;51.296;16.918;2023-02-15T00:14:20;50.63;;;29.70;;
48703;SDS011;34502;51.296;16.918;2023-02-15T00:16:48;51.63;;;30.10;;
48703;SDS011;34502;51.296;16.918;2023-02-15T00:19:16;55.72;;;30.25;;
48703;SDS011;34502;51.296;16.918;2023-02-15T00:21:43;52.88;;;31.05;;
48703;SDS011;34502;51.296;16.918;2023-02-15T00:24:10;57.47;;;30.77;;
48703;SDS011;34502;51.296;16.918;2023-02-15T00:26:39;54.05;;;29.83;;
48703;SDS011;34502;51.296;16.918;2023-02-15T00:29:06;53.10;;;31.58;;
48703;SDS011;34502;51.296;16.918;2023-02-15T00:31:33;53.45;;;30.08;;
48703;SDS011;34502;51.296;16.918;2023-02-15T00:34:03;48.45;;;27.77;;
48703;SDS011;34502;51.296;16.918;2023-02-15T00:36:30;43.50;;;26.40;;
48703;SDS011;34502;51.296;16.918;2023-02-15T00:38:57;47.90;;;28.35;;
48703;SDS011;34502;51.296;16.918;2023-02-15T00:41:23;51.85;;;27.55;;
48703;SDS011;34502;51.296;16.918;2023-02-15T00:43:49;47.40;;;27.50;;
48703;SDS011;34502;51.296;16.918;2023-02-15T00:46:15;45.00;;;26.48;;
48703;SDS011;34502;51.296;16.918;2023-02-15T00:48:41;49.72;;;27.27;;
48703;SDS011;34502;51.296;16.918;2023-02-15T00:51:08;50.15;;;28.38;;
48703;SDS011;34502;51.296;16.918;2023-02-15T00:53:34;47.03;;;26.38;;
48703;SDS011;34502;51.296;16.918;2023-02-15T00:56:00;48.67;;;26.70;;
48703;SDS011;34502;51.296;16.918;2023-02-15T00:58:26;45.95;;;25.65;;
48703;SDS011;34502;51.296;16.918;2023-02-15T01:00:52;41.95;;;25.67;;
48703;SDS011;34502;51.296;16.918;2023-02-15T01:03:19;41.03;;;24.92;;
48703;SDS011;34502;51.296;16.918;2023-02-15T01:05:46;46.45;;;26.85;;
48703;SDS011;34502;51.296;16.918;2023-02-15T01:08:13;45.60;;;26.15;;
48703;SDS011;34502;51.296;16.918;2023-02-15T01:10:39;43.85;;;25.50;;
48703;SDS011;34502;51.296;16.918;2023-02-15T01:13:05;48.30;;;25.77;;
48703;SDS011;34502;51.296;16.918;2023-02-15T01:15:33;44.08;;;26.45;;
48703;SDS011;34502;51.296;16.918;2023-02-15T01:18:00;47.60;;;25.42;;
48703;SDS011;34502;51.296;16.918;2023-02-15T01:20:27;45.80;;;25.85;;
48703;SDS011;34502;51.296;16.918;2023-02-15T01:22:53;43.85;;;26.50;;
48703;SDS011;34502;51.296;16.918;2023-02-15T01:25:21;46.50;;;26.40;;
48703;SDS011;34502;51.296;16.918;2023-02-15T01:27:48;48.55;;;25.95;;
48703;SDS011;34502;51.296;16.918;2023-02-15T01:30:14;44.95;;;26.90;;
48703;SDS011;34502;51.296;16.918;2023-02-15T01:32:41;45.83;;;26.58;;
48703;SDS011;34502;51.296;16.918;2023-02-15T01:35:08;44.13;;;26.92;;
48703;SDS011;34502;51.296;16.918;2023-02-15T01:37:34;47.28;;;26.73;;
48703;SDS011;34502;51.296;16.918;2023-02-15T01:40:05;49.65;;;26.25;;
48703;SDS011;34502;51.296;16.918;2023-02-15T01:42:33;46.88;;;27.55;;
48703;SDS011;34502;51.296;16.918;2023-02-15T01:45:00;52.25;;;27.48;;
48703;SDS011;34502;51.296;16.918;2023-02-15T01:47:51;51.83;;;28.25;;
48703;SDS011;34502;51.296;16.918;2023-02-15T01:55:58;51.88;;;29.67;;
48703;SDS011;34502;51.296;16.918;2023-02-15T01:58:35;53.20;;;29.60;;
48703;SDS011;34502;51.296;16.918;2023-02-15T02:01:02;57.80;;;31.27;;
48703;SDS011;34502;51.296;16.918;2023-02-15T02:03:55;58.67;;;32.25;;
48703;SDS011;34502;51.296;16.918;2023-02-15T02:06:16;60.72;;;30.65;;
48703;SDS011;34502;51.296;16.918;2023-02-15T02:08:42;57.78;;;31.77;;
48703;SDS011;34502;51.296;16.918;2023-02-15T02:11:12;54.75;;;29.88;;
48703;SDS011;34502;51.296;16.918;2023-02-15T02:13:39;61.33;;;31.67;;
48703;SDS011;34502;51.296;16.918;2023-02-15T02:21:50;58.40;;;32.05;;
48703;SDS011;34502;51.296;16.918;2023-02-15T02:24:40;57.72;;;32.30;;
48703;SDS011;34502;51.296;16.918;2023-02-15T02:32:53;56.83;;;32.33;;
48703;SDS011;34502;51.296;16.918;2023-02-15T02:35:31;58.40;;;32.78;;
48703;SDS011;34502;51.296;16.918;2023-02-15T02:38:34;56.67;;;31.05;;
48703;SDS011;34502;51.296;16.918;2023-02-15T02:44:01;66.22;;;33.30;;
48703;SDS011;34502;51.296;16.918;2023-02-15T02:46:46;56.80;;;31.20;;
48703;SDS011;34502;51.296;16.918;2023-02-15T02:49:31;56.40;;;31.95;;
48703;SDS011;34502;51.296;16.918;2023-02-15T02:52:01;58.45;;;32.40;;
48703;SDS011;34502;51.296;16.918;2023-02-15T02:54:30;58.40;;;31.05;;
48703;SDS011;34502;51.296;16.918;2023-02-15T02:56:58;56.60;;;32.20;;
48703;SDS011;34502;51.296;16.918;2023-02-15T02:59:30;55.58;;;29.30;;
48703;SDS011;34502;51.296;16.918;2023-02-15T03:02:09;50.00;;;26.13;;
48703;SDS011;34502;51.296;16.918;2023-02-15T03:04:39;48.90;;;27.45;;
48703;SDS011;34502;51.296;16.918;2023-02-15T03:07:12;55.05;;;29.05;;
48703;SDS011;34502;51.296;16.918;2023-02-15T03:09:47;46.17;;;26.85;;
48703;SDS011;34502;51.296;16.918;2023-02-15T03:12:19;49.50;;;26.83;;
48703;SDS011;34502;51.296;16.918;2023-02-15T03:14:56;51.58;;;28.40;;
48703;SDS011;34502;51.296;16.918;2023-02-15T03:17:26;46.65;;;26.75;;
48703;SDS011;34502;51.296;16.918;2023-02-15T03:19:54;51.50;;;28.88;;
48703;SDS011;34502;51.296;16.918;2023-02-15T03:22:33;53.47;;;28.05;;
48703;SDS011;34502;51.296;16.918;2023-02-15T03:27:34;56.63;;;29.83;;
48703;SDS011;34502;51.296;16.918;2023-02-15T03:30:03;51.28;;;29.23;;
48703;SDS011;34502;51.296;16.918;2023-02-15T03:32:31;43.20;;;25.42;;
48703;SDS011;34502;51.296;16.918;2023-02-15T03:34:58;49.88;;;28.95;;
48703;SDS011;34502;51.296;16.918;2023-02-15T03:37:29;47.10;;;27.67;;
48703;SDS011;34502;51.296;16.918;2023-02-15T03:40:15;45.30;;;26.38;;
48703;SDS011;34502;51.296;16.918;2023-02-15T03:43:11;51.80;;;28.17;;
48703;SDS011;34502;51.296;16.918;2023-02-15T03:45:57;52.08;;;28.92;;
48703;SDS011;34502;51.296;16.918;2023-02-15T03:50:58;48.95;;;26.50;;
48703;SDS011;34502;51.296;16.918;2023-02-15T03:53:45;49.97;;;27.42;;
48703;SDS011;34502;51.296;16.918;2023-02-15T03:56:12;54.00;;;29.73;;
48703;SDS011;34502;51.296;16.918;2023-02-15T03:58:38;56.17;;;30.10;;
48703;SDS011;34502;51.296;16.918;2023-02-15T04:01:25;47.90;;;28.52;;
48703;SDS011;34502;51.296;16.918;2023-02-15T04:04:22;53.72;;;28.67;;
48703;SDS011;34502;51.296;16.918;2023-02-15T04:06:49;49.28;;;27.98;;
48703;SDS011;34502;51.296;16.918;2023-02-15T04:09:15;53.80;;;31.15;;
48703;SDS011;34502;51.296;16.918;2023-02-15T04:12:00;48.08;;;27.38;;
48703;SDS011;34502;51.296;16.918;2023-02-15T04:14:26;52.55;;;28.77;;
48703;SDS011;34502;51.296;16.918;2023-02-15T04:17:11;49.88;;;28.35;;
48703;SDS011;34502;51.296;16.918;2023-02-15T04:19:37;50.33;;;28.52;;
48703;SDS011;34502;51.296;16.918;2023-02-15T04:22:21;52.95;;;29.55;;
48703;SDS011;34502;51.296;16.918;2023-02-15T04:25:06;50.08;;;30.10;;
48703;SDS011;34502;51.296;16.918;2023-02-15T04:27:38;52.17;;;29.80;;
48703;SDS011;34502;51.296;16.918;2023-02-15T04:30:05;52.72;;;28.40;;
48703;SDS011;34502;51.296;16.918;2023-02-15T04:32:32;48.65;;;27.92;;
48703;SDS011;34502;51.296;16.918;2023-02-15T04:34:59;49.17;;;28.65;;
48703;SDS011;34502;51.296;16.918;2023-02-15T04:37:25;49.92;;;28.88;;
48703;SDS011;34502;51.296;16.918;2023-02-15T04:39:52;43.13;;;26.33;;
48703;SDS011;34502;51.296;16.918;2023-02-15T04:42:18;46.30;;;26.42;;
48703;SDS011;34502;51.296;16.918;2023-02-15T04:44:44;44.13;;;25.67;;
48703;SDS011;34502;51.296;16.918;2023-02-15T04:47:10;41.75;;;25.65;;
48703;SDS011;34502;51.296;16.918;2023-02-15T04:49:36;46.03;;;26.83;;
48703;SDS011;34502;51.296;16.918;2023-02-15T04:52:02;42.40;;;25.92;;
48703;SDS011;34502;51.296;16.918;2023-02-15T04:54:28;48.55;;;27.52;;
48703;SDS011;34502;51.296;16.918;2023-02-15T04:56:54;46.58;;;26.98;;
48703;SDS011;34502;51.296;16.918;2023-02-15T04:59:21;45.13;;;26.73;;
48703;SDS011;34502;51.296;16.918;2023-02-15T05:01:47;47.15;;;26.70;;
48703;SDS011;34502;51.296;16.918;2023-02-15T05:04:13;46.63;;;28.25;;
48703;SDS011;34502;51.296;16.918;2023-02-15T05:06:39;45.05;;;27.70;;
48703;SDS011;34502;51.296;16.918;2023-02-15T05:09:05;44.85;;;28.02;;
48703;SDS011;34502;51.296;16.918;2023-02-15T05:11:31;49.17;;;28.15;;
48703;SDS011;34502;51.296;16.918;2023-02-15T05:13:57;46.33;;;28.98;;
48703;SDS011;34502;51.296;16.918;2023-02-15T05:16:23;48.65;;;30.00;;
48703;SDS011;34502;51.296;16.918;2023-02-15T05:18:50;51.55;;;29.52;;
48703;SDS011;34502;51.296;16.918;2023-02-15T05:21:16;52.53;;;30.75;;
48703;SDS011;34502;51.296;16.918;2023-02-15T05:23:42;50.60;;;29.92;;
48703;SDS011;34502;51.296;16.918;2023-02-15T05:26:12;55.80;;;30.75;;
48703;SDS011;34502;51.296;16.918;2023-02-15T05:29:02;51.08;;;29.83;;
48703;SDS011;34502;51.296;16.918;2023-02-15T05:31:28;55.60;;;31.85;;
48703;SDS011;34502;51.296;16.918;2023-02-15T05:33:55;59.85;;;33.95;;
48703;SDS011;34502;51.296;16.918;2023-02-15T05:36:21;55.83;;;30.58;;
48703;SDS011;34502;51.296;16.918;2023-02-15T05:38:47;56.33;;;32.10;;
48703;SDS011;34502;51.296;16.918;2023-02-15T05:41:13;56.25;;;32.35;;
48703;SDS011;34502;51.296;16.918;2023-02-15T05:43:39;59.42;;;32.53;;
48703;SDS011;34502;51.296;16.918;2023-02-15T05:46:06;57.53;;;33.03;;
48703;SDS011;34502;51.296;16.918;2023-02-15T05:48:32;65.28;;;35.22;;
48703;SDS011;34502;51.296;16.918;2023-02-15T05:50:59;59.08;;;34.00;;
48703;SDS011;34502;51.296;16.918;2023-02-15T05:53:27;61.95;;;34.08;;
48703;SDS011;34502;51.296;16.918;2023-02-15T05:55:54;62.78;;;32.50;;
48703;SDS011;34502;51.296;16.918;2023-02-15T05:58:25;65.72;;;34.17;;
48703;SDS011;34502;51.296;16.918;2023-02-15T06:00:51;62.40;;;34.35;;
48703;SDS011;34502;51.296;16.918;2023-02-15T06:03:18;58.70;;;34.28;;
48703;SDS011;34502;51.296;16.918;2023-02-15T06:05:44;63.03;;;34.90;;
48703;SDS011;34502;51.296;16.918;2023-02-15T06:08:10;61.42;;;35.30;;
48703;SDS011;34502;51.296;16.918;2023-02-15T06:10:36;71.68;;;38.10;;
48703;SDS011;34502;51.296;16.918;2023-02-15T06:13:02;64.50;;;35.45;;
48703;SDS011;34502;51.296;16.918;2023-02-15T06:15:29;67.32;;;35.47;;
48703;SDS011;34502;51.296;16.918;2023-02-15T06:17:55;65.50;;;35.92;;
48703;SDS011;34502;51.296;16.918;2023-02-15T06:20:21;62.53;;;35.08;;
48703;SDS011;34502;51.296;16.918;2023-02-15T06:22:47;66.57;;;37.88;;
48703;SDS011;34502;51.296;16.918;2023-02-15T06:25:13;69.05;;;37.25;;
48703;SDS011;34502;51.296;16.918;2023-02-15T06:27:42;72.70;;;36.72;;
48703;SDS011;34502;51.296;16.918;2023-02-15T06:30:09;74.15;;;37.53;;
48703;SDS011;34502;51.296;16.918;2023-02-15T06:32:35;67.75;;;37.63;;
48703;SDS011;34502;51.296;16.918;2023-02-15T06:35:02;63.70;;;36.40;;
48703;SDS011;34502;51.296;16.918;2023-02-15T06:37:28;73.50;;;36.13;;
48703;SDS011;34502;51.296;16.918;2023-02-15T06:39:54;68.95;;;36.67;;
48703;SDS011;34502;51.296;16.918;2023-02-15T06:42:21;66.32;;;35.85;;
48703;SDS011;34502;51.296;16.918;2023-02-15T06:44:47;63.53;;;37.40;;
48703;SDS011;34502;51.296;16.918;2023-02-15T06:47:13;68.65;;;38.67;;
48703;SDS011;34502;51.296;16.918;2023-02-15T06:49:39;67.68;;;36.40;;
48703;SDS011;34502;51.296;16.918;2023-02-15T06:52:05;70.30;;;37.28;;
48703;SDS011;34502;51.296;16.918;2023-02-15T06:54:31;72.95;;;37.65;;
48703;SDS011;34502;51.296;16.918;2023-02-15T06:56:57;66.18;;;35.35;;
48703;SDS011;34502;51.296;16.918;2023-02-15T06:59:23;66.28;;;36.38;;
48703;SDS011;34502;51.296;16.918;2023-02-15T07:01:50;67.15;;;36.92;;
48703;SDS011;34502;51.296;16.918;2023-02-15T07:04:16;65.28;;;37.20;;
48703;SDS011;34502;51.296;16.918;2023-02-15T07:06:42;70.25;;;37.00;;
48703;SDS011;34502;51.296;16.918;2023-02-15T07:09:08;65.03;;;35.28;;
48703;SDS011;34502;51.296;16.918;2023-02-15T07:11:34;63.03;;;36.22;;
48703;SDS011;34502;51.296;16.918;2023-02-15T07:14:18;62.28;;;35.15;;
48703;SDS011;34502;51.296;16.918;2023-02-15T07:16:45;63.67;;;35.80;;
48703;SDS011;34502;51.296;16.918;2023-02-15T07:19:11;68.00;;;37.83;;
48703;SDS011;34502;51.296;16.918;2023-02-15T07:21:37;60.78;;;33.97;;
48703;SDS011;34502;51.296;16.918;2023-02-15T07:24:03;63.13;;;36.03;;
48703;SDS011;34502;51.296;16.918;2023-02-15T07:26:31;64.85;;;37.22;;
48703;SDS011;34502;51.296;16.918;2023-02-15T07:28:57;64.45;;;35.60;;
48703;SDS011;34502;51.296;16.918;2023-02-15T07:31:23;64.25;;;36.90;;
48703;SDS011;34502;51.296;16.918;2023-02-15T07:33:49;66.63;;;36.85;;
48703;SDS011;34502;51.296;16.918;2023-02-15T07:36:15;64.13;;;36.45;;
48703;SDS011;34502;51.296;16.918;2023-02-15T07:38:41;63.88;;;38.15;;
48703;SDS011;34502;51.296;16.918;2023-02-15T07:41:11;60.83;;;35.90;;
48703;SDS011;34502;51.296;16.918;2023-02-15T07:43:39;61.65;;;35.00;;
48703;SDS011;34502;51.296;16.918;2023-02-15T07:46:08;63.65;;;35.63;;
48703;SDS011;34502;51.296;16.918;2023-02-15T07:48:37;61.78;;;34.63;;
48703;SDS011;34502;51.296;16.918;2023-02-15T07:51:04;64.28;;;35.13;;
48703;SDS011;34502;51.296;16.918;2023-02-15T07:53:32;56.90;;;33.85;;
48703;SDS011;34502;51.296;16.918;2023-02-15T07:55:59;55.28;;;32.70;;
48703;SDS011;34502;51.296;16.918;2023-02-15T07:58:26;56.17;;;31.63;;
48703;SDS011;34502;51.296;16.918;2023-02-15T08:01:12;56.78;;;33.58;;
48703;SDS011;34502;51.296;16.918;2023-02-15T08:03:39;56.95;;;33.67;;
48703;SDS011;34502;51.296;16.918;2023-02-15T08:06:05;57.67;;;34.08;;
48703;SDS011;34502;51.296;16.918;2023-02-15T08:08:35;51.63;;;33.63;;
48703;SDS011;34502;51.296;16.918;2023-02-15T08:16:59;63.38;;;36.97;;
48703;SDS011;34502;51.296;16.918;2023-02-15T08:19:28;62.63;;;36.53;;
48703;SDS011;34502;51.296;16.918;2023-02-15T08:21:57;63.13;;;36.72;;
48703;SDS011;34502;51.296;16.918;2023-02-15T08:24:26;62.22;;;37.28;;
48703;SDS011;34502;51.296;16.918;2023-02-15T08:26:53;56.40;;;35.53;;
48703;SDS011;34502;51.296;16.918;2023-02-15T08:29:24;61.08;;;36.45;;
48703;SDS011;34502;51.296;16.918;2023-02-15T08:31:55;64.95;;;36.67;;
48703;SDS011;34502;51.296;16.918;2023-02-15T08:34:33;67.72;;;37.20;;
48703;SDS011;34502;51.296;16.918;2023-02-15T08:37:00;63.83;;;35.92;;
48703;SDS011;34502;51.296;16.918;2023-02-15T08:39:26;64.38;;;39.67;;
48703;SDS011;34502;51.296;16.918;2023-02-15T08:41:53;66.20;;;38.13;;
48703;SDS011;34502;51.296;16.918;2023-02-15T08:44:20;67.30;;;39.80;;
48703;SDS011;34502;51.296;16.918;2023-02-15T08:46:47;70.50;;;40.22;;
48703;SDS011;34502;51.296;16.918;2023-02-15T08:49:18;67.55;;;39.97;;
48703;SDS011;34502;51.296;16.918;2023-02-15T08:51:45;63.08;;;38.42;;
48703;SDS011;34502;51.296;16.918;2023-02-15T08:54:13;62.40;;;36.78;;
48703;SDS011;34502;51.296;16.918;2023-02-15T08:56:43;60.42;;;36.55;;
48703;SDS011;34502;51.296;16.918;2023-02-15T08:59:17;58.05;;;35.45;;
48703;SDS011;34502;51.296;16.918;2023-02-15T09:01:45;58.33;;;35.83;;
48703;SDS011;34502;51.296;16.918;2023-02-15T09:04:11;63.97;;;36.80;;
48703;SDS011;34502;51.296;16.918;2023-02-15T09:06:38;63.22;;;38.20;;
48703;SDS011;34502;51.296;16.918;2023-02-15T09:09:06;63.25;;;37.90;;
48703;SDS011;34502;51.296;16.918;2023-02-15T09:11:35;61.30;;;38.50;;
48703;SDS011;34502;51.296;16.918;2023-02-15T09:14:07;67.47;;;38.10;;
48703;SDS011;34502;51.296;16.918;2023-02-15T09:16:38;65.72;;;38.53;;
48703;SDS011;34502;51.296;16.918;2023-02-15T09:19:05;65.55;;;37.13;;
48703;SDS011;34502;51.296;16.918;2023-02-15T09:21:32;59.80;;;37.58;;
48703;SDS011;34502;51.296;16.918;2023-02-15T09:24:01;57.63;;;36.70;;
48703;SDS011;34502;51.296;16.918;2023-02-15T09:26:30;60.95;;;37.70;;
48703;SDS011;34502;51.296;16.918;2023-02-15T09:28:59;62.22;;;39.60;;
48703;SDS011;34502;51.296;16.918;2023-02-15T09:31:29;64.70;;;37.78;;
48703;SDS011;34502;51.296;16.918;2023-02-15T09:33:58;58.17;;;35.30;;
48703;SDS011;34502;51.296;16.918;2023-02-15T09:36:29;57.95;;;35.70;;
48703;SDS011;34502;51.296;16.918;2023-02-15T09:38:57;54.90;;;35.53;;
48703;SDS011;34502;51.296;16.918;2023-02-15T09:44:12;46.90;;;30.95;;
48703;SDS011;34502;51.296;16.918;2023-02-15T09:49:54;45.88;;;28.75;;
48703;SDS011;34502;51.296;16.918;2023-02-15T09:55:23;39.05;;;27.33;;
48703;SDS011;34502;51.296;16.918;2023-02-15T10:00:20;38.03;;;26.10;;
48703;SDS011;34502;51.296;16.918;2023-02-15T10:03:13;39.15;;;27.88;;
48703;SDS011;34502;51.296;16.918;2023-02-15T10:08:51;33.92;;;25.75;;
48703;SDS011;34502;51.296;16.918;2023-02-15T10:19:16;33.47;;;26.52;;
48703;SDS011;34502;51.296;16.918;2023-02-15T10:27:46;59.53;;;30.08;;
48703;SDS011;34502;51.296;16.918;2023-02-15T10:30:18;34.63;;;28.20;;
48703;SDS011;34502;51.296;16.918;2023-02-15T10:38:24;34.58;;;27.55;;
48703;SDS011;34502;51.296;16.918;2023-02-15T10:43:32;39.45;;;28.08;;
48703;SDS011;34502;51.296;16.918;2023-02-15T10:49:05;37.58;;;28.77;;
48703;SDS011;34502;51.296;16.918;2023-02-15T10:51:53;40.13;;;30.77;;
48703;SDS011;34502;51.296;16.918;2023-02-15T10:59:54;46.55;;;31.83;;
48703;SDS011;34502;51.296;16.918;2023-02-15T11:02:37;50.65;;;34.55;;
48703;SDS011;34502;51.296;16.918;2023-02-15T11:08:03;45.35;;;31.95;;
48703;SDS011;34502;51.296;16.918;2023-02-15T11:10:37;52.90;;;32.85;;
48703;SDS011;34502;51.296;16.918;2023-02-15T11:13:16;47.22;;;31.70;;
48703;SDS011;34502;51.296;16.918;2023-02-15T11:15:56;51.05;;;33.55;;
48703;SDS011;34502;51.296;16.918;2023-02-15T11:21:29;55.85;;;34.75;;
48703;SDS011;34502;51.296;16.918;2023-02-15T11:23:59;54.35;;;34.03;;
48703;SDS011;34502;51.296;16.918;2023-02-15T11:29:57;49.88;;;32.78;;
48703;SDS011;34502;51.296;16.918;2023-02-15T11:32:38;43.65;;;30.23;;
48703;SDS011;34502;51.296;16.918;2023-02-15T11:40:24;54.33;;;32.55;;
48703;SDS011;34502;51.296;16.918;2023-02-15T11:42:57;53.38;;;34.67;;
48703;SDS011;34502;51.296;16.918;2023-02-15T11:45:29;50.90;;;33.65;;
48703;SDS011;34502;51.296;16.918;2023-02-15T11:47:58;50.83;;;31.63;;
48703;SDS011;34502;51.296;16.918;2023-02-15T11:50:28;47.22;;;32.28;;
48703;SDS011;34502;51.296;16.918;2023-02-15T11:52:57;52.10;;;34.72;;
48703;SDS011;34502;51.296;16.918;2023-02-15T11:55:25;52.30;;;31.83;;
48703;SDS011;34502;51.296;16.918;2023-02-15T11:57:55;53.08;;;34.97;;
48703;SDS011;34502;51.296;16.918;2023-02-15T12:00:42;50.70;;;31.80;;
48703;SDS011;34502;51.296;16.918;2023-02-15T12:06:05;47.00;;;31.80;;
48703;SDS011;34502;51.296;16.918;2023-02-15T12:08:42;44.72;;;29.63;;
48703;SDS011;34502;51.296;16.918;2023-02-15T12:11:22;51.63;;;32.72;;
48703;SDS011;34502;51.296;16.918;2023-02-15T12:13:58;53.63;;;34.20;;
48703;SDS011;34502;51.296;16.918;2023-02-15T12:16:27;48.33;;;30.83;;
48703;SDS011;34502;51.296;16.918;2023-02-15T12:18:57;47.67;;;30.75;;
48703;SDS011;34502;51.296;16.918;2023-02-15T12:24:01;47.40;;;31.55;;
48703;SDS011;34502;51.296;16.918;2023-02-15T12:26:34;47.08;;;30.30;;
48703;SDS011;34502;51.296;16.918;2023-02-15T12:29:01;42.92;;;28.92;;
48703;SDS011;34502;51.296;16.918;2023-02-15T12:31:36;39.53;;;26.43;;
48703;SDS011;34502;51.296;16.918;2023-02-15T12:34:09;37.33;;;26.38;;
48703;SDS011;34502;51.296;16.918;2023-02-15T12:36:46;39.25;;;26.48;;
48703;SDS011;34502;51.296;16.918;2023-02-15T12:39:20;37.67;;;25.33;;
48703;SDS011;34502;51.296;16.918;2023-02-15T12:44:21;45.85;;;28.23;;
48703;SDS011;34502;51.296;16.918;2023-02-15T12:49:36;39.88;;;27.42;;
48703;SDS011;34502;51.296;16.918;2023-02-15T12:52:46;48.10;;;28.83;;
48703;SDS011;34502;51.296;16.918;2023-02-15T12:54:52;43.22;;;28.23;;
48703;SDS011;34502;51.296;16.918;2023-02-15T12:59:51;44.53;;;29.52;;
48703;SDS011;34502;51.296;16.918;2023-02-15T13:02:23;45.95;;;29.90;;
48703;SDS011;34502;51.296;16.918;2023-02-15T13:05:14;44.97;;;29.15;;
48703;SDS011;34502;51.296;16.918;2023-02-15T13:08:11;43.30;;;27.55;;
48703;SDS011;34502;51.296;16.918;2023-02-15T13:13:33;41.50;;;27.52;;
48703;SDS011;34502;51.296;16.918;2023-02-15T13:16:10;38.70;;;26.10;;
48703;SDS011;34502;51.296;16.918;2023-02-15T13:18:44;42.25;;;26.17;;
48703;SDS011;34502;51.296;16.918;2023-02-15T13:21:12;42.03;;;26.48;;
48703;SDS011;34502;51.296;16.918;2023-02-15T13:26:48;46.53;;;25.77;;
48703;SDS011;34502;51.296;16.918;2023-02-15T13:29:25;40.03;;;26.02;;
48703;SDS011;34502;51.296;16.918;2023-02-15T13:31:54;49.58;;;27.20;;
48703;SDS011;34502;51.296;16.918;2023-02-15T13:34:24;46.58;;;27.48;;
48703;SDS011;34502;51.296;16.918;2023-02-15T13:42:20;40.08;;;26.42;;
48703;SDS011;34502;51.296;16.918;2023-02-15T13:47:49;42.15;;;28.52;;
48703;SDS011;34502;51.296;16.918;2023-02-15T14:01:40;42.40;;;28.70;;
48703;SDS011;34502;51.296;16.918;2023-02-15T14:12:58;46.25;;;30.98;;
48703;SDS011;34502;51.296;16.918;2023-02-15T14:18:40;45.85;;;31.10;;
48703;SDS011;34502;51.296;16.918;2023-02-15T14:31:39;50.15;;;32.55;;
48703;SDS011;34502;51.296;16.918;2023-02-15T14:34:17;51.67;;;33.25;;
48703;SDS011;34502;51.296;16.918;2023-02-15T14:36:46;48.90;;;31.90;;
48703;SDS011;34502;51.296;16.918;2023-02-15T14:42:24;47.50;;;30.98;;
48703;SDS011;34502;51.296;16.918;2023-02-15T14:44:57;45.53;;;30.63;;
48703;SDS011;34502;51.296;16.918;2023-02-15T14:47:31;45.72;;;31.08;;
48703;SDS011;34502;51.296;16.918;2023-02-15T14:55:47;46.45;;;29.67;;
48703;SDS011;34502;51.296;16.918;2023-02-15T14:58:30;41.58;;;28.70;;
48703;SDS011;34502;51.296;16.918;2023-02-15T15:01:03;41.58;;;29.08;;
48703;SDS011;34502;51.296;16.918;2023-02-15T15:03:33;44.75;;;30.13;;
48703;SDS011;34502;51.296;16.918;2023-02-15T15:06:01;49.25;;;30.85;;
48703;SDS011;34502;51.296;16.918;2023-02-15T15:08:33;47.28;;;30.58;;
48703;SDS011;34502;51.296;16.918;2023-02-15T15:13:54;47.22;;;30.20;;
48703;SDS011;34502;51.296;16.918;2023-02-15T15:16:30;45.97;;;30.98;;
48703;SDS011;34502;51.296;16.918;2023-02-15T15:19:03;47.60;;;30.17;;
48703;SDS011;34502;51.296;16.918;2023-02-15T15:41:14;47.20;;;28.38;;
48703;SDS011;34502;51.296;16.918;2023-02-15T15:49:16;41.95;;;27.98;;
48703;SDS011;34502;51.296;16.918;2023-02-15T15:51:44;45.25;;;28.30;;
48703;SDS011;34502;51.296;16.918;2023-02-15T15:54:14;43.63;;;27.75;;
48703;SDS011;34502;51.296;16.918;2023-02-15T15:56:43;44.97;;;29.40;;
48703;SDS011;34502;51.296;16.918;2023-02-15T15:59:19;40.17;;;27.90;;
48703;SDS011;34502;51.296;16.918;2023-02-15T16:01:48;42.22;;;29.20;;
48703;SDS011;34502;51.296;16.918;2023-02-15T16:04:28;44.72;;;28.67;;
48703;SDS011;34502;51.296;16.918;2023-02-15T16:06:56;45.63;;;29.42;;
48703;SDS011;34502;51.296;16.918;2023-02-15T16:09:24;44.55;;;29.33;;
48703;SDS011;34502;51.296;16.918;2023-02-15T16:11:57;45.15;;;30.23;;
48703;SDS011;34502;51.296;16.918;2023-02-15T16:14:29;64.50;;;40.67;;
48703;SDS011;34502;51.296;16.918;2023-02-15T16:16:58;126.50;;;76.90;;
48703;SDS011;34502;51.296;16.918;2023-02-15T16:19:43;186.75;;;113.53;;
48703;SDS011;34502;51.296;16.918;2023-02-15T16:22:31;151.70;;;91.22;;
48703;SDS011;34502;51.296;16.918;2023-02-15T16:28:05;102.82;;;64.03;;
48703;SDS011;34502;51.296;16.918;2023-02-15T16:33:07;70.45;;;42.42;;
48703;SDS011;34502;51.296;16.918;2023-02-15T16:38:19;54.40;;;33.92;;
48703;SDS011;34502;51.296;16.918;2023-02-15T16:40:56;59.08;;;36.55;;
48703;SDS011;34502;51.296;16.918;2023-02-15T16:43:24;61.65;;;39.60;;
48703;SDS011;34502;51.296;16.918;2023-02-15T16:45:53;82.60;;;50.13;;
48703;SDS011;34502;51.296;16.918;2023-02-15T16:48:30;80.88;;;51.55;;
48703;SDS011;34502;51.296;16.918;2023-02-15T16:50:58;83.28;;;53.45;;
48703;SDS011;34502;51.296;16.918;2023-02-15T16:53:26;87.72;;;55.53;;
48703;SDS011;34502;51.296;16.918;2023-02-15T16:55:53;97.40;;;58.53;;
48703;SDS011;34502;51.296;16.918;2023-02-15T16:58:26;90.85;;;57.17;;
48703;SDS011;34502;51.296;16.918;2023-02-15T17:01:03;81.57;;;53.13;;
48703;SDS011;34502;51.296;16.918;2023-02-15T17:03:33;85.32;;;52.85;;
48703;SDS011;34502;51.296;16.918;2023-02-15T17:06:00;85.70;;;53.58;;
48703;SDS011;34502;51.296;16.918;2023-02-15T17:08:31;78.45;;;49.58;;
48703;SDS011;34502;51.296;16.918;2023-02-15T17:13:37;79.07;;;49.90;;
48703;SDS011;34502;51.296;16.918;2023-02-15T17:18:31;315.45;;;174.68;;
48703;SDS011;34502;51.296;16.918;2023-02-15T17:21:08;333.88;;;201.77;;
48703;SDS011;34502;51.296;16.918;2023-02-15T17:23:42;201.27;;;118.03;;
48703;SDS011;34502;51.296;16.918;2023-02-15T17:28:52;108.00;;;65.60;;
48703;SDS011;34502;51.296;16.918;2023-02-15T17:31:21;82.93;;;48.85;;
48703;SDS011;34502;51.296;16.918;2023-02-15T17:33:51;74.47;;;43.88;;
48703;SDS011;34502;51.296;16.918;2023-02-15T17:36:22;76.20;;;44.67;;
48703;SDS011;34502;51.296;16.918;2023-02-15T17:41:24;79.85;;;47.13;;
48703;SDS011;34502;51.296;16.918;2023-02-15T17:43:54;81.88;;;49.90;;
48703;SDS011;34502;51.296;16.918;2023-02-15T17:46:21;80.10;;;49.13;;
48703;SDS011;34502;51.296;16.918;2023-02-15T17:48:47;93.95;;;55.00;;
48703;SDS011;34502;51.296;16.918;2023-02-15T17:51:15;148.73;;;82.57;;
48703;SDS011;34502;51.296;16.918;2023-02-15T17:53:42;167.63;;;95.30;;
48703;SDS011;34502;51.296;16.918;2023-02-15T17:56:27;169.57;;;95.00;;